sensor_id;sensor_type;location;lat;lon;timestamp;P1;P2;P0
49462;PMS5003;35357;51.722;0.500;2022-09-04T00:01:52;31;30;
49462;PMS5003;35357;51.722;0.500;2022-09-04T00:04:29;30;30;
49462;PMS5003;35357;51.722;0.500;2022-09-04T00:07:04;22;22;
49462;PMS5003;35357;51.722;0.500;2022-09-04T00:09:41;29;28;
49462;PMS5003;35357;51.722;0.500;2022-09-04T00:12:17;31;31;
49462;PMS5003;35357;51.722;0.500;2022-09-04T00:14:53;28;28;
49462;PMS5003;35357;51.722;0.500;2022-09-04T00:17:28;29;29;
49462;PMS5003;35357;51.722;0.500;2022-09-04T00:20:00;34;33;
49462;PMS5003;35357;51.722;0.500;2022-09-04T00:22:33;34;33;
49462;PMS5003;35357;51.722;0.500;2022-09-04T00:25:11;36;33;
49462;PMS5003;35357;51.722;0.500;2022-09-04T00:27:46;34;33;
49462;PMS5003;35357;51.722;0.500;2022-09-04T00:30:20;29;28;
49462;PMS5003;35357;51.722;0.500;2022-09-04T00:32:50;36;32;
49462;PMS5003;35357;51.722;0.500;2022-09-04T00:35:26;34;34;
49462;PMS5003;35357;51.722;0.500;2022-09-04T00:37:57;35;34;
49462;PMS5003;35357;51.722;0.500;2022-09-04T00:40:29;30;30;
49462;PMS5003;35357;51.722;0.500;2022-09-04T00:44:07;33;33;
49462;PMS5003;35357;51.722;0.500;2022-09-04T00:46:58;36;36;
49462;PMS5003;35357;51.722;0.500;2022-09-04T00:49:45;35;32;
49462;PMS5003;35357;51.722;0.500;2022-09-04T00:52:26;31;30;
49462;PMS5003;35357;51.722;0.500;2022-09-04T00:55:22;33;30;
49462;PMS5003;35357;51.722;0.500;2022-09-04T00:58:06;36;34;
49462;PMS5003;35357;51.722;0.500;2022-09-04T01:00:43;34;34;
49462;PMS5003;35357;51.722;0.500;2022-09-04T01:04:18;33;33;
49462;PMS5003;35357;51.722;0.500;2022-09-04T01:07:01;32;31;
49462;PMS5003;35357;51.722;0.500;2022-09-04T01:09:50;32;30;
49462;PMS5003;35357;51.722;0.500;2022-09-04T01:12:36;33;32;
49462;PMS5003;35357;51.722;0.500;2022-09-04T01:15:12;31;31;
49462;PMS5003;35357;51.722;0.500;2022-09-04T01:17:48;32;29;
49462;PMS5003;35357;51.722;0.500;2022-09-04T01:20:28;31;31;
49462;PMS5003;35357;51.722;0.500;2022-09-04T01:23:10;34;32;
49462;PMS5003;35357;51.722;0.500;2022-09-04T01:25:51;38;36;
49462;PMS5003;35357;51.722;0.500;2022-09-04T01:28:27;33;33;
49462;PMS5003;35357;51.722;0.500;2022-09-04T01:31:03;31;30;
49462;PMS5003;35357;51.722;0.500;2022-09-04T01:33:41;34;33;
49462;PMS5003;35357;51.722;0.500;2022-09-04T01:36:16;33;32;
49462;PMS5003;35357;51.722;0.500;2022-09-04T01:38:49;33;32;
49462;PMS5003;35357;51.722;0.500;2022-09-04T01:41:20;33;32;
49462;PMS5003;35357;51.722;0.500;2022-09-04T01:43:52;30;29;
49462;PMS5003;35357;51.722;0.500;2022-09-04T01:46:23;39;35;
49462;PMS5003;35357;51.722;0.500;2022-09-04T01:49:06;40;39;
49462;PMS5003;35357;51.722;0.500;2022-09-04T01:51:41;37;36;
49462;PMS5003;35357;51.722;0.500;2022-09-04T01:54:19;32;31;
49462;PMS5003;35357;51.722;0.500;2022-09-04T01:57:01;37;35;
49462;PMS5003;35357;51.722;0.500;2022-09-04T01:59:38;34;33;
49462;PMS5003;35357;51.722;0.500;2022-09-04T02:02:15;39;37;
49462;PMS5003;35357;51.722;0.500;2022-09-04T02:04:52;37;37;
49462;PMS5003;35357;51.722;0.500;2022-09-04T02:07:26;34;34;
49462;PMS5003;35357;51.722;0.500;2022-09-04T02:10:01;36;34;
49462;PMS5003;35357;51.722;0.500;2022-09-04T02:12:38;35;35;
49462;PMS5003;35357;51.722;0.500;2022-09-04T02:15:14;37;37;
49462;PMS5003;35357;51.722;0.500;2022-09-04T02:17:52;39;38;
49462;PMS5003;35357;51.722;0.500;2022-09-04T02:20:27;39;37;
49462;PMS5003;35357;51.722;0.500;2022-09-04T02:23:01;36;35;
49462;PMS5003;35357;51.722;0.500;2022-09-04T02:25:35;32;32;
49462;PMS5003;35357;51.722;0.500;2022-09-04T02:28:17;34;33;
49462;PMS5003;35357;51.722;0.500;2022-09-04T02:30:54;44;43;
49462;PMS5003;35357;51.722;0.500;2022-09-04T02:33:28;37;36;
49462;PMS5003;35357;51.722;0.500;2022-09-04T02:36:04;42;40;
49462;PMS5003;35357;51.722;0.500;2022-09-04T02:38:40;39;37;
49462;PMS5003;35357;51.722;0.500;2022-09-04T02:41:18;40;39;
49462;PMS5003;35357;51.722;0.500;2022-09-04T02:43:54;37;35;
49462;PMS5003;35357;51.722;0.500;2022-09-04T02:46:32;33;32;
49462;PMS5003;35357;51.722;0.500;2022-09-04T02:49:10;33;32;
49462;PMS5003;35357;51.722;0.500;2022-09-04T02:51:48;39;37;
49462;PMS5003;35357;51.722;0.500;2022-09-04T02:54:26;35;35;
49462;PMS5003;35357;51.722;0.500;2022-09-04T02:57:07;42;42;
49462;PMS5003;35357;51.722;0.500;2022-09-04T02:59:46;32;31;
49462;PMS5003;35357;51.722;0.500;2022-09-04T03:02:23;37;35;
49462;PMS5003;35357;51.722;0.500;2022-09-04T03:04:58;36;35;
49462;PMS5003;35357;51.722;0.500;2022-09-04T03:07:31;40;39;
49462;PMS5003;35357;51.722;0.500;2022-09-04T03:10:05;39;36;
49462;PMS5003;35357;51.722;0.500;2022-09-04T03:12:39;39;37;
49462;PMS5003;35357;51.722;0.500;2022-09-04T03:15:16;36;35;
49462;PMS5003;35357;51.722;0.500;2022-09-04T03:17:48;33;32;
49462;PMS5003;35357;51.722;0.500;2022-09-04T03:20:23;36;33;
49462;PMS5003;35357;51.722;0.500;2022-09-04T03:22:56;35;34;
49462;PMS5003;35357;51.722;0.500;2022-09-04T03:25:33;36;35;
49462;PMS5003;35357;51.722;0.500;2022-09-04T03:26:45;38;34;
49462;PMS5003;35357;51.722;0.500;2022-09-04T03:29:19;30;29;
49462;PMS5003;35357;51.722;0.500;2022-09-04T03:31:56;41;38;
49462;PMS5003;35357;51.722;0.500;2022-09-04T03:34:34;36;35;
49462;PMS5003;35357;51.722;0.500;2022-09-04T03:37:09;35;34;
49462;PMS5003;35357;51.722;0.500;2022-09-04T03:39:50;37;34;
49462;PMS5003;35357;51.722;0.500;2022-09-04T03:42:31;33;32;
49462;PMS5003;35357;51.722;0.500;2022-09-04T03:45:11;31;31;
49462;PMS5003;35357;51.722;0.500;2022-09-04T03:47:48;33;31;
49462;PMS5003;35357;51.722;0.500;2022-09-04T03:50:29;38;36;
49462;PMS5003;35357;51.722;0.500;2022-09-04T03:53:09;42;41;
49462;PMS5003;35357;51.722;0.500;2022-09-04T03:56:04;40;38;
49462;PMS5003;35357;51.722;0.500;2022-09-04T03:58:46;40;38;
49462;PMS5003;35357;51.722;0.500;2022-09-04T04:01:25;36;35;
49462;PMS5003;35357;51.722;0.500;2022-09-04T04:04:13;39;36;
49462;PMS5003;35357;51.722;0.500;2022-09-04T04:07:57;34;34;
49462;PMS5003;35357;51.722;0.500;2022-09-04T04:10:38;37;36;
49462;PMS5003;35357;51.722;0.500;2022-09-04T04:13:24;38;35;
49462;PMS5003;35357;51.722;0.500;2022-09-04T04:16:08;33;31;
49462;PMS5003;35357;51.722;0.500;2022-09-04T04:18:50;37;36;
49462;PMS5003;35357;51.722;0.500;2022-09-04T04:21:29;32;32;
49462;PMS5003;35357;51.722;0.500;2022-09-04T04:24:09;33;30;
49462;PMS5003;35357;51.722;0.500;2022-09-04T04:26:51;37;36;
49462;PMS5003;35357;51.722;0.500;2022-09-04T04:30:04;38;34;
49462;PMS5003;35357;51.722;0.500;2022-09-04T04:32:38;38;38;
49462;PMS5003;35357;51.722;0.500;2022-09-04T04:35:17;37;36;
49462;PMS5003;35357;51.722;0.500;2022-09-04T04:37:59;38;38;
49462;PMS5003;35357;51.722;0.500;2022-09-04T04:40:45;45;40;
49462;PMS5003;35357;51.722;0.500;2022-09-04T04:43:22;39;37;
49462;PMS5003;35357;51.722;0.500;2022-09-04T04:45:59;42;41;
49462;PMS5003;35357;51.722;0.500;2022-09-04T04:48:40;39;38;
49462;PMS5003;35357;51.722;0.500;2022-09-04T04:51:27;39;39;
49462;PMS5003;35357;51.722;0.500;2022-09-04T04:54:20;41;41;
49462;PMS5003;35357;51.722;0.500;2022-09-04T04:56:58;38;35;
49462;PMS5003;35357;51.722;0.500;2022-09-04T04:59:33;33;32;
49462;PMS5003;35357;51.722;0.500;2022-09-04T05:02:10;41;41;
49462;PMS5003;35357;51.722;0.500;2022-09-04T05:04:50;44;42;
49462;PMS5003;35357;51.722;0.500;2022-09-04T05:07:26;38;36;
49462;PMS5003;35357;51.722;0.500;2022-09-04T05:10:00;36;35;
49462;PMS5003;35357;51.722;0.500;2022-09-04T05:12:41;37;37;
49462;PMS5003;35357;51.722;0.500;2022-09-04T05:15:21;44;43;
49462;PMS5003;35357;51.722;0.500;2022-09-04T05:17:55;36;32;
49462;PMS5003;35357;51.722;0.500;2022-09-04T05:20:28;39;38;
49462;PMS5003;35357;51.722;0.500;2022-09-04T05:23:10;44;40;
49462;PMS5003;35357;51.722;0.500;2022-09-04T05:25:45;38;37;
49462;PMS5003;35357;51.722;0.500;2022-09-04T05:28:21;44;41;
49462;PMS5003;35357;51.722;0.500;2022-09-04T05:30:57;45;45;
49462;PMS5003;35357;51.722;0.500;2022-09-04T05:33:34;47;44;
49462;PMS5003;35357;51.722;0.500;2022-09-04T05:36:08;50;46;
49462;PMS5003;35357;51.722;0.500;2022-09-04T05:38:47;49;46;
49462;PMS5003;35357;51.722;0.500;2022-09-04T05:41:29;47;46;
49462;PMS5003;35357;51.722;0.500;2022-09-04T05:44:08;46;46;
49462;PMS5003;35357;51.722;0.500;2022-09-04T05:46:53;55;50;
49462;PMS5003;35357;51.722;0.500;2022-09-04T05:49:36;47;45;
49462;PMS5003;35357;51.722;0.500;2022-09-04T05:52:21;49;48;
49462;PMS5003;35357;51.722;0.500;2022-09-04T05:55:09;54;52;
49462;PMS5003;35357;51.722;0.500;2022-09-04T05:57:50;47;47;
49462;PMS5003;35357;51.722;0.500;2022-09-04T06:00:26;51;50;
49462;PMS5003;35357;51.722;0.500;2022-09-04T06:03:07;47;46;
49462;PMS5003;35357;51.722;0.500;2022-09-04T06:06:10;50;49;
49462;PMS5003;35357;51.722;0.500;2022-09-04T06:08:50;50;47;
49462;PMS5003;35357;51.722;0.500;2022-09-04T06:11:35;57;53;
49462;PMS5003;35357;51.722;0.500;2022-09-04T06:14:18;54;51;
49462;PMS5003;35357;51.722;0.500;2022-09-04T06:17:06;60;52;
49462;PMS5003;35357;51.722;0.500;2022-09-04T06:19:53;52;49;
49462;PMS5003;35357;51.722;0.500;2022-09-04T06:22:38;50;46;
49462;PMS5003;35357;51.722;0.500;2022-09-04T06:25:23;53;48;
49462;PMS5003;35357;51.722;0.500;2022-09-04T06:28:22;50;47;
49462;PMS5003;35357;51.722;0.500;2022-09-04T06:31:03;49;47;
49462;PMS5003;35357;51.722;0.500;2022-09-04T06:33:40;49;47;
49462;PMS5003;35357;51.722;0.500;2022-09-04T06:36:22;57;51;
49462;PMS5003;35357;51.722;0.500;2022-09-04T06:39:06;50;48;
49462;PMS5003;35357;51.722;0.500;2022-09-04T06:41:46;52;51;
49462;PMS5003;35357;51.722;0.500;2022-09-04T06:44:26;51;48;
49462;PMS5003;35357;51.722;0.500;2022-09-04T06:47:08;54;48;
49462;PMS5003;35357;51.722;0.500;2022-09-04T06:49:52;50;47;
49462;PMS5003;35357;51.722;0.500;2022-09-04T06:52:31;50;46;
49462;PMS5003;35357;51.722;0.500;2022-09-04T06:55:08;43;39;
49462;PMS5003;35357;51.722;0.500;2022-09-04T06:57:49;42;40;
49462;PMS5003;35357;51.722;0.500;2022-09-04T07:00:32;46;44;
49462;PMS5003;35357;51.722;0.500;2022-09-04T07:03:17;51;47;
49462;PMS5003;35357;51.722;0.500;2022-09-04T07:05:57;48;47;
49462;PMS5003;35357;51.722;0.500;2022-09-04T07:08:39;48;44;
49462;PMS5003;35357;51.722;0.500;2022-09-04T07:11:23;45;44;
49462;PMS5003;35357;51.722;0.500;2022-09-04T07:14:07;39;37;
49462;PMS5003;35357;51.722;0.500;2022-09-04T07:16:49;39;37;
49462;PMS5003;35357;51.722;0.500;2022-09-04T07:19:33;42;40;
49462;PMS5003;35357;51.722;0.500;2022-09-04T07:22:21;39;38;
49462;PMS5003;35357;51.722;0.500;2022-09-04T07:25:03;39;36;
49462;PMS5003;35357;51.722;0.500;2022-09-04T07:27:41;38;36;
49462;PMS5003;35357;51.722;0.500;2022-09-04T07:30:18;32;32;
49462;PMS5003;35357;51.722;0.500;2022-09-04T07:32:47;33;31;
49462;PMS5003;35357;51.722;0.500;2022-09-04T07:35:23;36;33;
49462;PMS5003;35357;51.722;0.500;2022-09-04T07:38:01;29;29;
49462;PMS5003;35357;51.722;0.500;2022-09-04T07:40:35;30;27;
49462;PMS5003;35357;51.722;0.500;2022-09-04T07:43:08;20;20;
49462;PMS5003;35357;51.722;0.500;2022-09-04T07:45:42;21;20;
49462;PMS5003;35357;51.722;0.500;2022-09-04T07:48:15;17;17;
49462;PMS5003;35357;51.722;0.500;2022-09-04T07:50:53;17;17;
49462;PMS5003;35357;51.722;0.500;2022-09-04T07:53:25;14;14;
49462;PMS5003;35357;51.722;0.500;2022-09-04T07:56:05;12;12;
49462;PMS5003;35357;51.722;0.500;2022-09-04T07:58:46;13;13;
49462;PMS5003;35357;51.722;0.500;2022-09-04T08:01:30;15;15;
49462;PMS5003;35357;51.722;0.500;2022-09-04T08:04:17;9;9;
49462;PMS5003;35357;51.722;0.500;2022-09-04T08:07:01;12;12;
49462;PMS5003;35357;51.722;0.500;2022-09-04T08:09:35;8;8;
49462;PMS5003;35357;51.722;0.500;2022-09-04T08:12:16;11;11;
49462;PMS5003;35357;51.722;0.500;2022-09-04T08:14:55;7;7;
49462;PMS5003;35357;51.722;0.500;2022-09-04T08:17:54;9;9;
49462;PMS5003;35357;51.722;0.500;2022-09-04T08:20:38;9;9;
49462;PMS5003;35357;51.722;0.500;2022-09-04T08:23:15;11;10;
49462;PMS5003;35357;51.722;0.500;2022-09-04T08:25:58;9;9;
49462;PMS5003;35357;51.722;0.500;2022-09-04T08:28:39;12;12;
49462;PMS5003;35357;51.722;0.500;2022-09-04T08:31:22;6;5;
49462;PMS5003;35357;51.722;0.500;2022-09-04T08:34:00;9;8;
49462;PMS5003;35357;51.722;0.500;2022-09-04T08:36:39;9;8;
49462;PMS5003;35357;51.722;0.500;2022-09-04T08:39:12;6;6;
49462;PMS5003;35357;51.722;0.500;2022-09-04T08:41:54;5;5;
49462;PMS5003;35357;51.722;0.500;2022-09-04T08:45:17;7;7;
49462;PMS5003;35357;51.722;0.500;2022-09-04T08:50:37;7;7;
49462;PMS5003;35357;51.722;0.500;2022-09-04T08:54:30;8;7;
49462;PMS5003;35357;51.722;0.500;2022-09-04T08:57:19;7;7;
49462;PMS5003;35357;51.722;0.500;2022-09-04T09:00:08;6;6;
49462;PMS5003;35357;51.722;0.500;2022-09-04T09:02:55;6;6;
49462;PMS5003;35357;51.722;0.500;2022-09-04T09:06:50;7;7;
49462;PMS5003;35357;51.722;0.500;2022-09-04T09:12:05;6;6;
49462;PMS5003;35357;51.722;0.500;2022-09-04T09:14:57;6;6;
49462;PMS5003;35357;51.722;0.500;2022-09-04T09:17:38;7;7;
49462;PMS5003;35357;51.722;0.500;2022-09-04T09:20:25;7;7;
49462;PMS5003;35357;51.722;0.500;2022-09-04T09:23:32;3;3;
49462;PMS5003;35357;51.722;0.500;2022-09-04T09:26:12;7;6;
49462;PMS5003;35357;51.722;0.500;2022-09-04T09:30:01;5;5;
49462;PMS5003;35357;51.722;0.500;2022-09-04T09:34:52;7;7;
49462;PMS5003;35357;51.722;0.500;2022-09-04T09:38:37;4;4;
49462;PMS5003;35357;51.722;0.500;2022-09-04T09:42:33;6;6;
49462;PMS5003;35357;51.722;0.500;2022-09-04T09:45:25;6;6;
49462;PMS5003;35357;51.722;0.500;2022-09-04T09:48:14;5;5;
49462;PMS5003;35357;51.722;0.500;2022-09-04T09:51:40;5;5;
49462;PMS5003;35357;51.722;0.500;2022-09-04T09:54:48;5;5;
49462;PMS5003;35357;51.722;0.500;2022-09-04T09:57:11;5;5;
49462;PMS5003;35357;51.722;0.500;2022-09-04T10:00:02;5;5;
49462;PMS5003;35357;51.722;0.500;2022-09-04T10:02:39;6;6;
49462;PMS5003;35357;51.722;0.500;2022-09-04T10:07:58;5;5;
49462;PMS5003;35357;51.722;0.500;2022-09-04T10:10:49;5;4;
49462;PMS5003;35357;51.722;0.500;2022-09-04T10:13:34;5;5;
49462;PMS5003;35357;51.722;0.500;2022-09-04T10:17:45;5;5;
49462;PMS5003;35357;51.722;0.500;2022-09-04T10:20:30;5;5;
49462;PMS5003;35357;51.722;0.500;2022-09-04T10:23:20;7;6;
49462;PMS5003;35357;51.722;0.500;2022-09-04T10:26:02;5;5;
49462;PMS5003;35357;51.722;0.500;2022-09-04T10:28:49;6;5;
49462;PMS5003;35357;51.722;0.500;2022-09-04T10:31:51;5;4;
49462;PMS5003;35357;51.722;0.500;2022-09-04T10:34:37;4;4;
49462;PMS5003;35357;51.722;0.500;2022-09-04T10:37:27;4;4;
49462;PMS5003;35357;51.722;0.500;2022-09-04T10:40:09;4;4;
49462;PMS5003;35357;51.722;0.500;2022-09-04T10:42:49;5;5;
49462;PMS5003;35357;51.722;0.500;2022-09-04T10:45:26;5;5;
49462;PMS5003;35357;51.722;0.500;2022-09-04T10:48:09;5;4;
49462;PMS5003;35357;51.722;0.500;2022-09-04T10:51:11;3;3;
49462;PMS5003;35357;51.722;0.500;2022-09-04T10:54:00;1;1;
49462;PMS5003;35357;51.722;0.500;2022-09-04T10:57:49;5;5;
49462;PMS5003;35357;51.722;0.500;2022-09-04T11:00:29;4;4;
49462;PMS5003;35357;51.722;0.500;2022-09-04T11:03:24;4;4;
49462;PMS5003;35357;51.722;0.500;2022-09-04T11:06:30;4;4;
49462;PMS5003;35357;51.722;0.500;2022-09-04T11:09:24;5;5;
49462;PMS5003;35357;51.722;0.500;2022-09-04T11:14:25;6;6;
49462;PMS5003;35357;51.722;0.500;2022-09-04T11:17:21;4;4;
49462;PMS5003;35357;51.722;0.500;2022-09-04T11:20:10;4;4;
49462;PMS5003;35357;51.722;0.500;2022-09-04T11:22:32;4;4;
49462;PMS5003;35357;51.722;0.500;2022-09-04T11:25:26;2;2;
49462;PMS5003;35357;51.722;0.500;2022-09-04T11:29:36;4;3;
49462;PMS5003;35357;51.722;0.500;2022-09-04T11:32:17;3;3;
49462;PMS5003;35357;51.722;0.500;2022-09-04T11:35:01;2;2;
49462;PMS5003;35357;51.722;0.500;2022-09-04T11:37:57;3;3;
49462;PMS5003;35357;51.722;0.500;2022-09-04T11:40:38;3;3;
49462;PMS5003;35357;51.722;0.500;2022-09-04T11:43:30;6;5;
49462;PMS5003;35357;51.722;0.500;2022-09-04T11:46:26;2;2;
49462;PMS5003;35357;51.722;0.500;2022-09-04T11:49:12;4;4;
49462;PMS5003;35357;51.722;0.500;2022-09-04T11:51:43;4;4;
49462;PMS5003;35357;51.722;0.500;2022-09-04T11:54:30;3;3;
49462;PMS5003;35357;51.722;0.500;2022-09-04T11:57:21;4;4;
49462;PMS5003;35357;51.722;0.500;2022-09-04T12:00:01;4;4;
49462;PMS5003;35357;51.722;0.500;2022-09-04T12:02:40;4;4;
49462;PMS5003;35357;51.722;0.500;2022-09-04T12:05:23;4;4;
49462;PMS5003;35357;51.722;0.500;2022-09-04T12:08:10;5;5;
49462;PMS5003;35357;51.722;0.500;2022-09-04T12:10:59;3;3;
49462;PMS5003;35357;51.722;0.500;2022-09-04T12:13:43;5;5;
49462;PMS5003;35357;51.722;0.500;2022-09-04T12:16:28;4;4;
49462;PMS5003;35357;51.722;0.500;2022-09-04T12:19:25;5;5;
49462;PMS5003;35357;51.722;0.500;2022-09-04T12:22:08;4;4;
49462;PMS5003;35357;51.722;0.500;2022-09-04T12:24:56;6;5;
49462;PMS5003;35357;51.722;0.500;2022-09-04T12:27:41;4;4;
49462;PMS5003;35357;51.722;0.500;2022-09-04T12:30:26;5;4;
49462;PMS5003;35357;51.722;0.500;2022-09-04T12:33:05;5;5;
49462;PMS5003;35357;51.722;0.500;2022-09-04T12:35:53;5;5;
49462;PMS5003;35357;51.722;0.500;2022-09-04T12:38:43;5;5;
49462;PMS5003;35357;51.722;0.500;2022-09-04T12:41:41;4;4;
49462;PMS5003;35357;51.722;0.500;2022-09-04T12:44:17;4;4;
49462;PMS5003;35357;51.722;0.500;2022-09-04T12:46:56;3;3;
49462;PMS5003;35357;51.722;0.500;2022-09-04T12:49:40;3;3;
49462;PMS5003;35357;51.722;0.500;2022-09-04T12:52:39;5;5;
49462;PMS5003;35357;51.722;0.500;2022-09-04T12:55:17;3;3;
49462;PMS5003;35357;51.722;0.500;2022-09-04T12:57:58;3;3;
49462;PMS5003;35357;51.722;0.500;2022-09-04T13:00:38;3;3;
49462;PMS5003;35357;51.722;0.500;2022-09-04T13:03:18;3;3;
49462;PMS5003;35357;51.722;0.500;2022-09-04T13:05:58;4;4;
49462;PMS5003;35357;51.722;0.500;2022-09-04T13:08:39;3;3;
49462;PMS5003;35357;51.722;0.500;2022-09-04T13:11:22;4;4;
49462;PMS5003;35357;51.722;0.500;2022-09-04T13:14:03;5;5;
49462;PMS5003;35357;51.722;0.500;2022-09-04T13:16:54;3;3;
49462;PMS5003;35357;51.722;0.500;2022-09-04T13:19:31;3;3;
49462;PMS5003;35357;51.722;0.500;2022-09-04T13:22:11;3;3;
49462;PMS5003;35357;51.722;0.500;2022-09-04T13:24:51;5;5;
49462;PMS5003;35357;51.722;0.500;2022-09-04T13:27:32;3;3;
49462;PMS5003;35357;51.722;0.500;2022-09-04T13:30:08;3;3;
49462;PMS5003;35357;51.722;0.500;2022-09-04T13:32:48;5;4;
49462;PMS5003;35357;51.722;0.500;2022-09-04T13:35:31;2;2;
49462;PMS5003;35357;51.722;0.500;2022-09-04T13:38:12;3;3;
49462;PMS5003;35357;51.722;0.500;2022-09-04T13:41:15;3;3;
49462;PMS5003;35357;51.722;0.500;2022-09-04T13:43:35;3;3;
49462;PMS5003;35357;51.722;0.500;2022-09-04T13:46:20;4;4;
49462;PMS5003;35357;51.722;0.500;2022-09-04T13:48:54;6;4;
49462;PMS5003;35357;51.722;0.500;2022-09-04T13:51:25;2;2;
49462;PMS5003;35357;51.722;0.500;2022-09-04T13:53:58;3;3;
49462;PMS5003;35357;51.722;0.500;2022-09-04T13:56:33;4;4;
49462;PMS5003;35357;51.722;0.500;2022-09-04T13:59:08;4;3;
49462;PMS5003;35357;51.722;0.500;2022-09-04T14:01:41;2;2;
49462;PMS5003;35357;51.722;0.500;2022-09-04T14:04:15;3;3;
49462;PMS5003;35357;51.722;0.500;2022-09-04T14:06:44;3;3;
49462;PMS5003;35357;51.722;0.500;2022-09-04T14:09:11;3;3;
49462;PMS5003;35357;51.722;0.500;2022-09-04T14:11:47;6;4;
49462;PMS5003;35357;51.722;0.500;2022-09-04T14:14:35;4;3;
49462;PMS5003;35357;51.722;0.500;2022-09-04T14:17:21;4;4;
49462;PMS5003;35357;51.722;0.500;2022-09-04T14:19:57;2;2;
49462;PMS5003;35357;51.722;0.500;2022-09-04T14:22:38;3;3;
49462;PMS5003;35357;51.722;0.500;2022-09-04T14:25:16;4;3;
49462;PMS5003;35357;51.722;0.500;2022-09-04T14:27:49;5;4;
49462;PMS5003;35357;51.722;0.500;2022-09-04T14:30:25;5;5;
49462;PMS5003;35357;51.722;0.500;2022-09-04T14:32:56;3;3;
49462;PMS5003;35357;51.722;0.500;2022-09-04T14:35:35;2;2;
49462;PMS5003;35357;51.722;0.500;2022-09-04T14:38:20;4;4;
49462;PMS5003;35357;51.722;0.500;2022-09-04T14:41:00;4;4;
49462;PMS5003;35357;51.722;0.500;2022-09-04T14:43:41;5;5;
49462;PMS5003;35357;51.722;0.500;2022-09-04T14:46:18;3;3;
49462;PMS5003;35357;51.722;0.500;2022-09-04T14:48:58;4;3;
49462;PMS5003;35357;51.722;0.500;2022-09-04T14:51:30;5;5;
49462;PMS5003;35357;51.722;0.500;2022-09-04T14:54:00;2;2;
49462;PMS5003;35357;51.722;0.500;2022-09-04T14:56:30;4;4;
49462;PMS5003;35357;51.722;0.500;2022-09-04T14:59:06;4;4;
49462;PMS5003;35357;51.722;0.500;2022-09-04T15:01:53;3;3;
49462;PMS5003;35357;51.722;0.500;2022-09-04T15:04:27;3;3;
49462;PMS5003;35357;51.722;0.500;2022-09-04T15:07:01;4;3;
49462;PMS5003;35357;51.722;0.500;2022-09-04T15:09:44;4;4;
49462;PMS5003;35357;51.722;0.500;2022-09-04T15:12:16;3;3;
49462;PMS5003;35357;51.722;0.500;2022-09-04T15:14:48;4;4;
49462;PMS5003;35357;51.722;0.500;2022-09-04T15:17:22;4;4;
49462;PMS5003;35357;51.722;0.500;2022-09-04T15:19:53;4;4;
49462;PMS5003;35357;51.722;0.500;2022-09-04T15:22:28;5;5;
49462;PMS5003;35357;51.722;0.500;2022-09-04T15:25:04;4;4;
49462;PMS5003;35357;51.722;0.500;2022-09-04T15:27:35;5;5;
49462;PMS5003;35357;51.722;0.500;2022-09-04T15:30:15;3;3;
49462;PMS5003;35357;51.722;0.500;2022-09-04T15:32:45;4;4;
49462;PMS5003;35357;51.722;0.500;2022-09-04T15:35:15;5;4;
49462;PMS5003;35357;51.722;0.500;2022-09-04T15:37:48;3;3;
49462;PMS5003;35357;51.722;0.500;2022-09-04T15:40:20;4;4;
49462;PMS5003;35357;51.722;0.500;2022-09-04T15:42:56;3;3;
49462;PMS5003;35357;51.722;0.500;2022-09-04T15:45:37;7;7;
49462;PMS5003;35357;51.722;0.500;2022-09-04T15:48:15;5;5;
49462;PMS5003;35357;51.722;0.500;2022-09-04T15:50:50;5;5;
49462;PMS5003;35357;51.722;0.500;2022-09-04T15:53:26;4;4;
49462;PMS5003;35357;51.722;0.500;2022-09-04T15:56:00;6;5;
49462;PMS5003;35357;51.722;0.500;2022-09-04T15:58:32;4;3;
49462;PMS5003;35357;51.722;0.500;2022-09-04T16:01:10;5;4;
49462;PMS5003;35357;51.722;0.500;2022-09-04T16:03:44;4;4;
49462;PMS5003;35357;51.722;0.500;2022-09-04T16:06:21;5;5;
49462;PMS5003;35357;51.722;0.500;2022-09-04T16:08:52;4;4;
49462;PMS5003;35357;51.722;0.500;2022-09-04T16:11:25;5;4;
49462;PMS5003;35357;51.722;0.500;2022-09-04T16:13:57;5;5;
49462;PMS5003;35357;51.722;0.500;2022-09-04T16:16:29;4;4;
49462;PMS5003;35357;51.722;0.500;2022-09-04T16:19:06;4;4;
49462;PMS5003;35357;51.722;0.500;2022-09-04T16:21:45;4;4;
49462;PMS5003;35357;51.722;0.500;2022-09-04T16:24:18;5;5;
49462;PMS5003;35357;51.722;0.500;2022-09-04T16:26:50;5;5;
49462;PMS5003;35357;51.722;0.500;2022-09-04T16:29:24;5;5;
49462;PMS5003;35357;51.722;0.500;2022-09-04T16:31:57;4;4;
49462;PMS5003;35357;51.722;0.500;2022-09-04T16:34:25;5;5;
49462;PMS5003;35357;51.722;0.500;2022-09-04T16:36:59;5;5;
49462;PMS5003;35357;51.722;0.500;2022-09-04T16:39:40;4;4;
49462;PMS5003;35357;51.722;0.500;2022-09-04T16:42:17;5;5;
49462;PMS5003;35357;51.722;0.500;2022-09-04T16:44:50;6;5;
49462;PMS5003;35357;51.722;0.500;2022-09-04T16:47:29;5;5;
49462;PMS5003;35357;51.722;0.500;2022-09-04T16:50:00;5;5;
49462;PMS5003;35357;51.722;0.500;2022-09-04T16:52:42;5;5;
49462;PMS5003;35357;51.722;0.500;2022-09-04T16:55:16;3;3;
49462;PMS5003;35357;51.722;0.500;2022-09-04T16:57:51;5;5;
49462;PMS5003;35357;51.722;0.500;2022-09-04T17:00:31;6;6;
49462;PMS5003;35357;51.722;0.500;2022-09-04T17:03:21;8;8;
49462;PMS5003;35357;51.722;0.500;2022-09-04T17:05:50;11;10;
49462;PMS5003;35357;51.722;0.500;2022-09-04T17:08:24;14;13;
49462;PMS5003;35357;51.722;0.500;2022-09-04T17:11:01;7;7;
49462;PMS5003;35357;51.722;0.500;2022-09-04T17:13:38;7;6;
49462;PMS5003;35357;51.722;0.500;2022-09-04T17:16:13;4;4;
49462;PMS5003;35357;51.722;0.500;2022-09-04T17:18:44;6;6;
49462;PMS5003;35357;51.722;0.500;2022-09-04T17:21:16;5;5;
49462;PMS5003;35357;51.722;0.500;2022-09-04T17:23:47;6;6;
49462;PMS5003;35357;51.722;0.500;2022-09-04T17:26:25;6;6;
49462;PMS5003;35357;51.722;0.500;2022-09-04T17:28:57;4;4;
49462;PMS5003;35357;51.722;0.500;2022-09-04T17:31:27;5;4;
49462;PMS5003;35357;51.722;0.500;2022-09-04T17:34:00;6;6;
49462;PMS5003;35357;51.722;0.500;2022-09-04T17:36:36;5;5;
49462;PMS5003;35357;51.722;0.500;2022-09-04T17:39:08;4;4;
49462;PMS5003;35357;51.722;0.500;2022-09-04T17:41:44;4;4;
49462;PMS5003;35357;51.722;0.500;2022-09-04T17:44:24;6;6;
49462;PMS5003;35357;51.722;0.500;2022-09-04T17:47:05;8;8;
49462;PMS5003;35357;51.722;0.500;2022-09-04T17:49:44;6;6;
49462;PMS5003;35357;51.722;0.500;2022-09-04T17:52:20;4;4;
49462;PMS5003;35357;51.722;0.500;2022-09-04T17:54:49;6;6;
49462;PMS5003;35357;51.722;0.500;2022-09-04T17:57:19;5;5;
49462;PMS5003;35357;51.722;0.500;2022-09-04T17:59:55;5;5;
49462;PMS5003;35357;51.722;0.500;2022-09-04T18:02:29;4;4;
49462;PMS5003;35357;51.722;0.500;2022-09-04T18:05:10;6;5;
49462;PMS5003;35357;51.722;0.500;2022-09-04T18:07:45;4;4;
49462;PMS5003;35357;51.722;0.500;2022-09-04T18:10:19;3;3;
49462;PMS5003;35357;51.722;0.500;2022-09-04T18:12:56;5;5;
49462;PMS5003;35357;51.722;0.500;2022-09-04T18:15:34;4;4;
49462;PMS5003;35357;51.722;0.500;2022-09-04T18:18:11;4;4;
49462;PMS5003;35357;51.722;0.500;2022-09-04T18:20:44;3;3;
49462;PMS5003;35357;51.722;0.500;2022-09-04T18:23:22;3;3;
49462;PMS5003;35357;51.722;0.500;2022-09-04T18:26:02;5;3;